Terminal Aerodrome Forecast
Issued by NWS

Home | Current Version | Previous Version | Graphics & Text | Print | Product List | Glossary Off
Versions: 1 2 3 4 5 6 7 8 9 10 11 12

000
FTUS43 KGRB 261100
TAFATW
TAF
KATW 261120Z 2612/2712 36008KT P6SM SKC
     FM261600 02010G18KT P6SM SCT250
     FM262300 02008KT P6SM FEW070 SCT250=

USA.gov is the U.S. government's official web portal to all federal, state and local government web resources and services.